Tolar, TX (76476)

1:35 AM CST on December 19, 2014 (GMT -0600)
Spanish Trails | Change Station
CLOSE
Current Station
Personal Weather Station
Location: Granbury, TX
Elevation: 732 ft
Nearby Weather Stations

Elev 732 ft 32.42 °N, 97.79 °W | Updated 9 minutes ago

Overcast
Overcast
45.9 °F
Feels Like 46 °F
N
1.7
Wind Variable Wind from WNW

Today
High -- | Low -- °F
--% Chance of Precip.
Yesterday
High -- | Low -- °F
Precip. -- in
7:27 AM 5:29 PM
Waning Crescent, 9% visible
Pressure 30.16 in
Visibility 10.0 miles
Clouds Scattered Clouds 1200 ft
Overcast 1700 ft
Windchill 46 °F
Dew Point 43 °F
Humidity 91%
Rainfall 0.00 in
Snow Depth Not available.
UV 0 out of 12
Pollen 9.00 out of 12
Air Quality Not available.
Flu Activity Not available.
METAR KGDJ 190715Z AUTO 00000KT 10SM SCT012 OVC017 09/07 A3016 RMK AO2 T00850065

More Conditions Fewer Conditions

Pressure 30.16 in
Visibility 10.0 miles
Clouds Scattered Clouds 1200 ft
Overcast 1700 ft
Windchill 46 °F
Dew Point 43 °F
Humidity 91%
Rainfall 0.00 in
Snow Depth Not available.
UV 0 out of 12
Pollen 9.00 out of 12
Air Quality Not available.
Flu Activity Not available.
METAR KGDJ 190715Z AUTO 00000KT 10SM SCT012 OVC017 09/07 A3016 RMK AO2 T00850065

More Conditions Fewer Conditions

Nowcast | as of 1:32 am CST on December 19, 2014

Scattered to numerous showers and isolated thunderstorms that were south of a Breckenridge to Waco to Crockett line at 130 am will continue to move northeast at 30 mph. The rain will be mostly light to moderate though some brief heavy rain and cloud to ground lightning may accompany some of the storms.

×

10-Day Weather Forecast

Almanac

Astronomy

Dec. 19, 2014 Rise Set
Actual Time
Civil Twilight
Nautical Twilight
Astronomical Twilight
Moon
Length of Visible Light
Length of Day
Tomorrow will be .
, % of the Moon is Illuminated

Today's Extremes

State Highs State Lows

Community

WunderPhotos

Upload Photos

1,778,953 photos uploaded!

WunderBlogs® & News

Nearby

Air Quality

  Air Quality AQ Index Pollutant
Not available.

Snow Depth

Station Depth Elevation

Earthquake Activity

City Distance Mag. Time & Date
Minimum magnitude displayed is 2.5.

Coastal Water Temperatures

Place Temperature

Nearby Weather Stations